De Kooy, Netherlands
Current Conditions -  °F | °C
As of 1:25 PM on Sunday 25 Jan 2015 (Local Time) from EHKD Reporting Station
Overcast Overcast  
Wind Chill: 40°   Ceiling: 1100
Heat Index: 45°   Visibility: 6mi
Dew Point: 41°   Wind: 9mph
Humidity: 87%   Direction: 250°WSW
Pressure: 30.33"   Gusts: NA
Location:  52.92°N, 4.78°E
Report Text: EHKD 251225Z AUTO 25008KT 9999 BKN011 BKN014 OVC068 07/05 Q1027 GRN 24007KT
Loading
Personal Weather Stations






























Interactive Weather Map New forecast layout! Learn more

10-Day Weather Forecast

Advertisements
Track Severe Weather on mobile